Time;durP1;ratioP1;P1;durP2;ratioP2;P2;SDS_P1;SDS_P2;PMS_P1;PMS_P2;Temp;Humidity;BMP_temperature;BMP_pressure;BME280_temperature;BME280_humidity;BME280_pressure;Samples;Min_cycle;Max_cycle;Signal;HPM_P1;HPM_P2
2022/06/29 05:02:55;;;;;;;7.10;6.15;;;18.10;99.90;;;;;;5254648;23;20130;-81
2022/06/29 05:05:21;;;;;;;11.63;7.43;;;18.00;99.90;;;;;;4919799;29;20061;-82
2022/06/29 05:07:47;;;;;;;11.52;8.23;;;18.00;99.90;;;;;;4943609;29;20262;-82
2022/06/29 05:10:13;;;;;;;14.57;8.00;;;18.00;99.90;;;;;;4927120;29;20094;-81
2022/06/29 05:12:38;;;;;;;17.95;8.82;;;18.00;99.90;;;;;;4945270;29;20023;-84
2022/06/29 05:15:06;;;;;;;16.10;8.02;;;18.00;99.90;;;;;;4911469;29;20023;-82
2022/06/29 05:17:36;;;;;;;12.27;7.50;;;18.00;99.90;;;;;;4944011;29;20082;-81
2022/06/29 05:20:06;;;;;;;11.30;7.18;;;18.10;99.90;;;;;;4944685;29;20032;-81
2022/06/29 05:22:32;;;;;;;12.07;7.22;;;18.10;99.90;;;;;;4944386;29;20028;-82
2022/06/29 05:24:58;;;;;;;8.10;7.22;;;18.10;99.90;;;;;;4928118;29;20023;-83
2022/06/29 05:27:24;;;;;;;9.07;6.95;;;18.00;99.90;;;;;;4931327;29;20384;-83
2022/06/29 05:29:50;;;;;;;10.50;7.22;;;18.00;99.90;;;;;;4931857;29;20071;-83
2022/06/29 05:32:15;;;;;;;12.27;6.78;;;18.10;99.90;;;;;;4950951;29;20325;-82
2022/06/29 05:34:41;;;;;;;9.18;6.15;;;18.10;99.90;;;;;;4940837;29;20019;-82
2022/06/29 05:37:07;;;;;;;12.07;7.18;;;18.10;99.90;;;;;;4924584;29;20034;-82
2022/06/29 05:39:33;;;;;;;14.57;8.35;;;18.20;99.90;;;;;;4939488;29;20028;-83
2022/06/29 05:41:58;;;;;;;12.95;7.20;;;18.20;99.90;;;;;;4934409;29;20048;-82
2022/06/29 05:44:24;;;;;;;11.30;7.18;;;18.20;99.90;;;;;;4912153;29;20370;-82
2022/06/29 05:46:50;;;;;;;10.77;7.63;;;18.30;99.90;;;;;;4895441;29;20035;-84
2022/06/29 05:49:19;;;;;;;9.10;6.50;;;18.20;99.90;;;;;;4929092;29;20024;-83
2022/06/29 05:51:44;;;;;;;10.15;7.10;;;18.30;99.90;;;;;;4928569;29;20028;-81
2022/06/29 05:54:15;;;;;;;10.45;7.55;;;18.30;99.90;;;;;;4896628;29;20039;-82
2022/06/29 05:56:45;;;;;;;10.88;7.60;;;18.30;99.90;;;;;;4895723;29;20032;-82
2022/06/29 05:59:11;;;;;;;9.65;6.78;;;18.40;99.90;;;;;;4928660;29;20039;-81
2022/06/29 06:01:36;;;;;;;9.18;7.63;;;18.30;99.90;;;;;;4905648;29;20405;-82
2022/06/29 06:04:02;;;;;;;10.65;6.97;;;18.40;99.90;;;;;;4892840;29;20397;-83
2022/06/29 06:06:29;;;;;;;12.52;7.30;;;18.50;99.90;;;;;;4906373;29;20096;-82
2022/06/29 06:08:55;;;;;;;11.27;7.72;;;18.50;99.90;;;;;;4893039;29;20072;-82
2022/06/29 06:11:20;;;;;;;12.13;7.53;;;18.60;99.90;;;;;;4892555;29;20259;-83
2022/06/29 06:13:46;;;;;;;14.38;7.55;;;18.60;99.90;;;;;;4907736;29;20024;-82
2022/06/29 06:16:20;;;;;;;12.80;7.63;;;18.70;99.90;;;;;;4907491;29;20041;-81
2022/06/29 06:18:45;;;;;;;13.07;6.78;;;18.70;99.90;;;;;;4907589;29;20039;-83
2022/06/29 06:21:11;;;;;;;9.77;6.93;;;18.80;99.90;;;;;;4909766;29;20020;-83
2022/06/29 06:23:37;;;;;;;8.38;6.20;;;18.90;99.90;;;;;;4909940;29;20025;-81
2022/06/29 06:26:02;;;;;;;9.27;6.68;;;18.90;99.90;;;;;;4896319;29;20059;-81
2022/06/29 06:28:29;;;;;;;9.13;6.40;;;18.90;99.90;;;;;;4928888;29;20064;-82
2022/06/29 06:30:54;;;;;;;9.75;6.25;;;19.00;99.90;;;;;;4903772;29;20040;-80
2022/06/29 06:33:20;;;;;;;8.80;6.63;;;19.20;99.90;;;;;;4908140;29;20055;-82
2022/06/29 06:35:46;;;;;;;11.10;6.03;;;19.30;99.90;;;;;;4893647;29;20032;-82
2022/06/29 06:38:14;;;;;;;7.78;5.40;;;19.50;99.90;;;;;;4893164;29;20073;-82
2022/06/29 06:43:25;;;;;;;8.57;5.88;;;19.90;99.90;;;;;;4922094;29;20035;-82
2022/06/29 06:45:50;;;;;;;9.55;5.50;;;19.80;99.90;;;;;;4884196;29;20040;-82
2022/06/29 06:48:16;;;;;;;8.18;4.95;;;20.00;99.90;;;;;;4899465;29;20032;-82
2022/06/29 06:50:42;;;;;;;7.35;5.63;;;20.20;99.90;;;;;;4897622;29;20056;-80
2022/06/29 06:53:08;;;;;;;11.00;5.13;;;20.40;99.90;;;;;;4904631;29;20024;-81
2022/06/29 06:55:33;;;;;;;8.98;5.40;;;20.50;99.90;;;;;;4909296;29;20040;-82
2022/06/29 06:58:01;;;;;;;7.80;5.35;;;20.60;99.90;;;;;;4917260;29;20032;-83
2022/06/29 07:00:28;;;;;;;11.13;5.82;;;20.60;99.90;;;;;;4893282;29;20103;-83
2022/06/29 07:02:54;;;;;;;12.65;5.68;;;20.70;99.90;;;;;;4925795;29;20144;-83
2022/06/29 07:05:20;;;;;;;7.95;5.50;;;20.90;99.90;;;;;;4902714;29;20077;-83
2022/06/29 07:07:46;;;;;;;10.60;5.60;;;21.00;99.90;;;;;;4908082;29;20075;-82
2022/06/29 07:10:12;;;;;;;9.95;5.55;;;21.10;99.90;;;;;;4908523;29;20091;-81
2022/06/29 07:12:38;;;;;;;11.07;6.07;;;21.10;99.90;;;;;;4908430;29;20028;-81
2022/06/29 07:15:04;;;;;;;10.35;5.82;;;21.20;99.90;;;;;;4892122;29;20219;-82
2022/06/29 07:17:31;;;;;;;12.48;6.90;;;;;;;;;;4893185;29;20103;-82
2022/06/29 07:19:57;;;;;;;11.13;5.50;;;21.60;99.90;;;;;;4903862;29;20079;-82
2022/06/29 07:22:23;;;;;;;8.02;5.35;;;21.60;99.90;;;;;;4919645;29;20028;-80
2022/06/29 07:24:49;;;;;;;9.32;5.50;;;21.60;99.90;;;;;;4908148;29;20324;-81
2022/06/29 07:27:15;;;;;;;6.43;5.57;;;21.60;99.90;;;;;;4892802;29;20024;-82
2022/06/29 07:29:41;;;;;;;6.80;5.20;;;21.70;99.90;;;;;;4892723;29;20031;-81
2022/06/29 07:32:07;;;;;;;7.38;5.35;;;21.80;99.90;;;;;;4908250;29;20063;-82
2022/06/29 07:34:33;;;;;;;8.68;5.30;;;21.90;99.90;;;;;;4907962;29;20313;-82
2022/06/29 07:36:59;;;;;;;7.22;5.13;;;22.10;99.90;;;;;;4908255;29;20027;-81
2022/06/29 07:39:25;;;;;;;8.23;5.13;;;22.20;99.90;;;;;;4892932;29;20043;-81
2022/06/29 07:41:50;;;;;;;9.77;5.03;;;22.20;99.90;;;;;;4908258;29;20039;-82
2022/06/29 07:44:16;;;;;;;6.72;5.13;;;;;;;;;;4909537;29;20028;-81
2022/06/29 07:46:42;;;;;;;9.60;5.28;;;22.40;99.90;;;;;;4906453;29;20198;-83
2022/06/29 07:49:08;;;;;;;7.55;5.35;;;22.50;99.90;;;;;;4924029;29;20345;-83
2022/06/29 07:51:35;;;;;;;7.28;5.00;;;22.60;99.90;;;;;;4908088;29;20031;-82
2022/06/29 07:54:00;;;;;;;8.20;4.85;;;22.70;99.90;;;;;;4908228;29;20023;-83
2022/06/29 07:56:26;;;;;;;7.13;4.53;;;22.80;99.90;;;;;;4925232;29;20036;-83
2022/06/29 07:58:52;;;;;;;9.70;4.60;;;23.00;99.90;;;;;;4907980;29;20101;-82
2022/06/29 08:01:18;;;;;;;8.52;4.40;;;23.20;99.40;;;;;;4907391;29;20047;-82
2022/06/29 08:03:45;;;;;;;7.75;4.45;;;23.30;98.80;;;;;;4908038;29;20202;-81
2022/06/29 08:06:11;;;;;;;7.40;4.60;;;23.60;98.80;;;;;;4907583;29;20039;-81
2022/06/29 08:08:36;;;;;;;6.28;4.65;;;24.00;98.30;;;;;;4891985;29;20043;-82
2022/06/29 08:11:02;;;;;;;5.80;4.35;;;24.00;98.20;;;;;;4907486;29;20023;-82
2022/06/29 08:13:28;;;;;;;6.63;4.03;;;24.20;96.40;;;;;;4914445;29;20230;-82
2022/06/29 08:15:54;;;;;;;6.05;4.05;;;24.20;96.30;;;;;;4906515;29;20381;-81
2022/06/29 08:18:19;;;;;;;6.47;4.22;;;24.40;96.30;;;;;;4906074;29;20035;-81
2022/06/29 08:20:45;;;;;;;5.57;3.70;;;24.50;95.30;;;;;;4888928;29;20025;-81
2022/06/29 08:23:11;;;;;;;5.47;4.28;;;24.50;94.70;;;;;;4889256;29;20031;-83
2022/06/29 08:25:37;;;;;;;9.52;4.68;;;24.40;94.80;;;;;;4904269;29;20131;-84
2022/06/29 08:28:05;;;;;;;6.82;4.22;;;24.60;94.80;;;;;;4889478;29;20024;-82
2022/06/29 08:30:31;;;;;;;4.75;3.97;;;24.60;94.50;;;;;;4905519;29;20224;-81
2022/06/29 08:32:57;;;;;;;7.50;4.50;;;24.50;94.00;;;;;;4900870;29;20024;-81
2022/06/29 08:35:23;;;;;;;5.95;4.30;;;24.60;94.00;;;;;;4924544;29;20107;-80
2022/06/29 08:37:49;;;;;;;5.47;4.10;;;24.70;94.30;;;;;;4891764;29;20032;-82
2022/06/29 08:40:16;;;;;;;7.68;4.25;;;24.70;93.50;;;;;;4907084;29;20038;-82
2022/06/29 08:42:43;;;;;;;4.30;3.83;;;25.00;93.40;;;;;;4907882;29;20095;-81
2022/06/29 08:45:10;;;;;;;6.18;4.05;;;25.00;93.30;;;;;;4907244;29;20222;-81
2022/06/29 08:47:36;;;;;;;4.75;3.55;;;25.10;92.70;;;;;;4924342;29;20027;-81
2022/06/29 08:50:06;;;;;;;5.43;3.75;;;25.40;92.50;;;;;;4925099;29;20036;-82
2022/06/29 08:52:35;;;;;;;4.25;3.58;;;25.50;91.80;;;;;;4908004;29;20024;-82
2022/06/29 08:55:04;;;;;;;6.53;4.13;;;25.50;91.80;;;;;;4892412;29;20330;-81
2022/06/29 08:57:31;;;;;;;6.30;3.72;;;25.60;91.50;;;;;;4907629;29;20024;-81
2022/06/29 08:59:56;;;;;;;5.82;3.58;;;25.80;91.50;;;;;;4884232;29;20110;-81
2022/06/29 09:02:22;;;;;;;8.27;3.78;;;26.20;91.20;;;;;;4904290;29;20060;-83
2022/06/29 09:04:49;;;;;;;6.35;3.53;;;26.50;90.00;;;;;;4911069;29;20071;-83
2022/06/29 09:07:15;;;;;;;5.78;3.85;;;26.90;88.60;;;;;;4901330;29;20052;-83
2022/06/29 09:10:04;;;;;;;6.55;3.55;;;27.20;88.80;;;;;;4892505;29;20314;-84
2022/06/29 09:12:31;;;;;;;4.28;3.63;;;27.40;87.50;;;;;;4908833;29;20024;-82
2022/06/29 09:14:58;;;;;;;5.57;3.50;;;27.50;86.40;;;;;;4910737;29;20027;-83
2022/06/29 09:17:24;;;;;;;4.97;4.10;;;27.60;85.90;;;;;;4910829;29;20044;-82
2022/06/29 09:19:53;;;;;;;5.85;3.90;;;27.60;86.50;;;;;;4895335;29;20039;-82
2022/06/29 09:22:19;;;;;;;5.45;3.60;;;27.60;85.20;;;;;;4911146;29;20069;-82
2022/06/29 09:24:47;;;;;;;5.63;4.55;;;27.30;86.40;;;;;;4910750;29;20053;-82
2022/06/29 09:27:13;;;;;;;6.32;3.85;;;27.20;86.80;;;;;;4928183;29;20028;-81
2022/06/29 09:29:41;;;;;;;5.95;3.58;;;27.10;87.40;;;;;;4910576;29;20195;-84
2022/06/29 09:32:11;;;;;;;5.80;3.83;;;27.30;87.30;;;;;;4910531;29;20356;-83
2022/06/29 09:34:39;;;;;;;5.13;4.43;;;27.40;87.30;;;;;;4908150;29;20039;-83
2022/06/29 09:37:07;;;;;;;5.57;3.73;;;27.30;86.00;;;;;;4927781;29;20103;-81
2022/06/29 09:39:52;;;;;;;5.82;3.53;;;27.50;87.20;;;;;;4910635;29;20637;-82
2022/06/29 09:42:23;;;;;;;7.97;3.42;;;27.70;85.20;;;;;;4927785;29;20036;-82
2022/06/29 09:44:49;;;;;;;4.57;3.22;;;27.70;85.30;;;;;;4910328;29;20329;-82
2022/06/29 09:47:17;;;;;;;6.97;3.40;;;27.90;85.40;;;;;;4895030;29;20039;-83
2022/06/29 09:49:44;;;;;;;5.78;3.05;;;28.20;84.40;;;;;;4910279;29;20110;-85
2022/06/29 09:52:11;;;;;;;6.45;3.60;;;28.60;83.10;;;;;;4927657;29;20016;-83
2022/06/29 09:54:40;;;;;;;4.32;3.30;;;28.60;83.10;;;;;;4905872;29;20024;-83
2022/06/29 09:57:08;;;;;;;4.85;3.10;;;28.80;83.20;;;;;;4899771;29;20107;-84
2022/06/29 10:02:37;;;;;;;5.03;2.88;;;29.10;82.70;;;;;;4927760;29;20044;-81
2022/06/29 10:05:12;;;;;;;6.28;2.80;;;29.30;80.60;;;;;;4901079;29;20064;-82
2022/06/29 10:07:41;;;;;;;3.88;2.58;;;29.40;80.10;;;;;;4903583;29;20028;-83
2022/06/29 10:10:10;;;;;;;3.50;2.47;;;29.60;80.30;;;;;;4905398;29;20079;-83
2022/06/29 10:15:51;;;;;;;4.55;2.50;;;29.40;81.20;;;;;;4927531;29;20095;-83
2022/06/29 10:18:35;;;;;;;4.30;2.55;;;29.00;80.10;;;;;;4923275;29;20024;-83
2022/06/29 10:21:10;;;;;;;5.13;2.17;;;28.50;80.50;;;;;;4903895;29;20318;-82
2022/06/29 10:23:53;;;;;;;4.60;2.78;;;28.30;82.90;;;;;;4911227;29;20420;-83
2022/06/29 10:26:30;;;;;;;4.18;3.38;;;28.10;83.20;;;;;;4922861;29;20045;-82
2022/06/29 10:29:05;;;;;;;5.97;3.65;;;27.80;84.60;;;;;;4908731;29;20033;-83
2022/06/29 10:31:50;;;;;;;5.18;3.80;;;27.60;85.00;;;;;;4876945;29;20233;-82
2022/06/29 10:34:31;;;;;;;6.00;3.75;;;27.60;84.90;;;;;;4911714;29;20032;-83
2022/06/29 10:37:14;;;;;;;6.10;3.63;;;27.40;85.60;;;;;;4910646;29;20097;-83
2022/06/29 10:39:48;;;;;;;4.97;3.33;;;27.20;85.70;;;;;;4910178;29;20035;-84
2022/06/29 10:45:24;;;;;;;11.57;3.28;;;27.20;86.20;;;;;;4910304;29;20322;-83
2022/06/29 10:47:56;;;;;;;5.25;3.22;;;27.50;85.70;;;;;;4910424;29;20056;-83
2022/06/29 10:50:27;;;;;;;5.28;3.40;;;27.60;85.00;;;;;;4927016;29;20056;-84
2022/06/29 10:52:55;;;;;;;4.28;2.97;;;27.80;84.70;;;;;;4909819;29;20028;-84
2022/06/29 10:55:22;;;;;;;5.10;3.03;;;27.80;84.50;;;;;;4910332;29;20024;-84
2022/06/29 10:57:48;;;;;;;5.20;2.92;;;28.10;84.40;;;;;;4894341;29;20036;-82
2022/06/29 11:00:25;;;;;;;6.45;2.72;;;28.30;84.00;;;;;;4927169;29;20028;-82
2022/06/29 11:02:53;;;;;;;3.78;2.38;;;28.40;83.10;;;;;;4927808;29;20043;-82
2022/06/29 11:05:19;;;;;;;5.55;2.58;;;28.60;81.90;;;;;;4928120;29;20036;-81
2022/06/29 11:13:04;;;;;;;4.00;2.67;;;29.70;79.70;;;;;;4912126;29;20043;-81
2022/06/29 11:15:41;;;;;;;5.43;2.55;;;30.10;78.60;;;;;;4906349;29;20040;-82
2022/06/29 11:18:08;;;;;;;8.48;2.70;;;30.00;78.80;;;;;;4906607;29;20037;-81
2022/06/29 11:20:34;;;;;;;4.05;2.60;;;30.30;78.50;;;;;;4906105;29;20033;-82
2022/06/29 11:23:01;;;;;;;5.78;2.60;;;30.70;77.10;;;;;;4905811;29;20048;-81
2022/06/29 11:25:35;;;;;;;3.90;2.17;;;30.20;77.70;;;;;;4893657;29;20029;-84
2022/06/29 11:28:00;;;;;;;4.90;2.60;;;30.60;77.90;;;;;;4905527;29;20410;-80
2022/06/29 11:30:26;;;;;;;5.25;2.97;;;31.00;77.50;;;;;;4905746;29;20040;-80
2022/06/29 11:32:52;;;;;;;3.78;2.58;;;31.10;76.20;;;;;;4905210;29;20039;-81
2022/06/29 11:35:23;;;;;;;4.10;2.70;;;30.80;76.00;;;;;;4905498;29;20032;-81
2022/06/29 11:38:02;;;;;;;5.97;2.92;;;31.10;76.10;;;;;;4889515;29;20068;-80
2022/06/29 11:40:43;;;;;;;5.20;2.72;;;31.30;76.10;;;;;;4849743;29;20133;-79
2022/06/29 11:43:17;;;;;;;4.97;2.58;;;31.70;74.70;;;;;;4837009;29;20175;-82
2022/06/29 11:45:54;;;;;;;4.18;2.72;;;31.80;74.20;;;;;;4867912;29;20044;-80
2022/06/29 11:48:27;;;;;;;3.78;2.53;;;32.30;72.90;;;;;;4867686;29;20492;-81
2022/06/29 11:50:56;;;;;;;5.72;2.70;;;32.20;73.50;;;;;;4852088;29;20041;-80
2022/06/29 11:53:43;;;;;;;5.30;2.20;;;32.30;74.80;;;;;;4837387;29;20093;-80
2022/06/29 11:56:23;;;;;;;3.90;2.38;;;32.20;74.40;;;;;;4852463;29;20367;-80
2022/06/29 11:58:56;;;;;;;5.85;2.60;;;32.60;72.40;;;;;;4867360;29;20108;-80
2022/06/29 12:01:25;;;;;;;4.28;2.35;;;32.40;73.40;;;;;;4851330;29;20045;-82
2022/06/29 12:03:56;;;;;;;4.95;2.83;;;32.50;72.60;;;;;;4851728;29;20081;-79
2022/06/29 12:06:24;;;;;;;5.43;2.67;;;32.40;72.70;;;;;;4867399;29;20187;-79
2022/06/29 12:08:52;;;;;;;5.25;2.50;;;32.30;73.20;;;;;;4851684;29;20246;-82
2022/06/29 12:11:18;;;;;;;5.38;2.63;;;32.70;71.90;;;;;;4877067;29;20262;-81
2022/06/29 12:13:44;;;;;;;6.35;2.08;;;34.40;69.10;;;;;;4925466;29;20333;-81
2022/06/29 12:16:10;;;;;;;4.85;2.00;;;35.60;67.40;;;;;;4892878;29;20036;-83
2022/06/29 12:18:36;;;;;;;5.38;2.15;;;35.70;66.90;;;;;;4923662;29;20416;-80
2022/06/29 12:21:05;;;;;;;7.63;2.60;;;36.70;66.60;;;;;;4902523;29;20341;-83
2022/06/29 12:23:31;;;;;;;5.32;2.10;;;37.20;65.00;;;;;;4893490;29;20028;-80
2022/06/29 12:25:58;;;;;;;4.60;2.35;;;37.80;63.20;;;;;;4914880;29;20079;-82
2022/06/29 12:28:24;;;;;;;5.57;2.03;;;38.70;61.90;;;;;;4908780;29;20327;-82
2022/06/29 12:30:52;;;;;;;4.00;2.00;;;39.60;61.40;;;;;;4905624;29;20059;-80
2022/06/29 12:33:19;;;;;;;6.65;1.85;;;40.10;58.90;;;;;;4905608;29;20095;-80
2022/06/29 12:35:46;;;;;;;5.47;1.92;;;40.80;58.80;;;;;;4908507;29;20040;-80
2022/06/29 12:38:12;;;;;;;4.87;2.03;;;41.20;56.90;;;;;;4925559;29;20026;-81
2022/06/29 12:40:38;;;;;;;4.80;2.00;;;41.00;56.90;;;;;;4908687;29;20270;-80
2022/06/29 12:43:05;;;;;;;4.07;1.70;;;42.50;56.50;;;;;;4926307;29;20310;-79
2022/06/29 12:45:31;;;;;;;3.63;1.75;;;43.40;54.10;;;;;;4909144;29;20044;-79
2022/06/29 12:47:57;;;;;;;4.83;1.60;;;44.00;53.50;;;;;;4909581;29;20039;-82
2022/06/29 12:50:23;;;;;;;7.43;2.45;;;43.10;52.40;;;;;;4910009;29;20448;-80
2022/06/29 12:52:50;;;;;;;7.05;2.30;;;39.80;54.80;;;;;;4909254;29;20221;-79
2022/06/29 12:55:18;;;;;;;3.17;1.70;;;38.30;57.70;;;;;;4926023;29;20062;-79
2022/06/29 12:57:44;;;;;;;5.47;2.00;;;37.00;59.00;;;;;;4909510;29;20063;-79
2022/06/29 13:00:11;;;;;;;4.28;1.98;;;36.50;60.70;;;;;;4926020;29;20060;-80
2022/06/29 13:02:38;;;;;;;5.45;1.80;;;36.30;59.90;;;;;;4893961;29;20061;-80
2022/06/29 13:05:05;;;;;;;3.28;1.65;;;36.90;59.70;;;;;;4906526;29;20047;-81
2022/06/29 13:07:32;;;;;;;5.72;2.03;;;38.90;58.50;;;;;;4907544;29;20302;-79
2022/06/29 13:09:59;;;;;;;6.13;1.83;;;40.50;57.20;;;;;;4907941;29;20024;-78
2022/06/29 13:12:25;;;;;;;4.07;1.88;;;40.20;55.90;;;;;;4890270;29;20234;-81
2022/06/29 13:14:52;;;;;;;4.63;2.00;;;38.80;57.00;;;;;;4909891;29;20192;-81
2022/06/29 13:17:18;;;;;;;4.72;2.00;;;38.10;57.70;;;;;;4908912;29;20237;-81
2022/06/29 13:19:43;;;;;;;2.85;2.00;;;37.50;59.10;;;;;;4926074;29;20040;-78
2022/06/29 13:22:10;;;;;;;4.53;2.10;;;37.00;59.60;;;;;;4908753;29;20385;-77
2022/06/29 13:24:36;;;;;;;4.45;2.05;;;36.50;60.60;;;;;;4926293;29;20032;-79
2022/06/29 13:27:02;;;;;;;3.90;1.48;;;37.90;58.50;;;;;;4925391;29;20108;-79
2022/06/29 13:29:28;;;;;;;2.50;1.48;;;40.10;56.10;;;;;;4926358;29;20032;-79
2022/06/29 13:31:59;;;;;;;2.75;1.52;;;41.20;54.20;;;;;;4908172;29;20040;-79
2022/06/29 13:34:27;;;;;;;4.80;1.67;;;39.70;54.80;;;;;;4908916;29;20040;-80
2022/06/29 13:36:56;;;;;;;3.25;1.58;;;39.00;56.30;;;;;;4908463;29;20028;-79
2022/06/29 13:39:22;;;;;;;4.18;1.73;;;37.60;56.40;;;;;;4908924;29;20070;-79
2022/06/29 13:41:48;;;;;;;3.63;1.70;;;35.70;60.40;;;;;;4908886;29;20059;-82
2022/06/29 13:44:14;;;;;;;3.78;1.95;;;35.10;60.60;;;;;;4909037;29;20092;-81
2022/06/29 13:46:41;;;;;;;3.28;1.70;;;34.50;62.00;;;;;;4927479;29;20052;-79
2022/06/29 13:49:07;;;;;;;4.82;2.20;;;33.60;62.60;;;;;;4929216;29;20048;-81
2022/06/29 13:51:33;;;;;;;6.32;2.35;;;32.80;63.60;;;;;;4929334;29;20243;-78
2022/06/29 13:53:59;;;;;;;5.95;2.10;;;32.10;65.40;;;;;;4929206;29;20340;-80
2022/06/29 13:56:24;;;;;;;3.67;1.95;;;32.50;65.70;;;;;;4912581;29;20067;-80
2022/06/29 13:58:50;;;;;;;3.72;2.13;;;33.00;66.50;;;;;;4929043;29;20036;-78
2022/06/29 14:01:16;;;;;;;5.22;2.42;;;33.30;65.90;;;;;;4896208;29;20211;-78
2022/06/29 14:03:42;;;;;;;5.65;2.78;;;33.70;65.70;;;;;;4920648;29;20116;-80
2022/06/29 14:06:08;;;;;;;5.47;2.47;;;34.00;64.80;;;;;;4899754;29;20238;-80
2022/06/29 14:08:34;;;;;;;6.55;2.28;;;34.30;64.40;;;;;;4910248;29;20040;-79
2022/06/29 14:11:00;;;;;;;4.38;1.88;;;35.80;62.70;;;;;;4893219;29;20032;-78
2022/06/29 14:13:27;;;;;;;4.50;2.30;;;38.50;59.10;;;;;;4896358;29;20095;-79
2022/06/29 14:15:52;;;;;;;3.40;1.70;;;40.20;56.80;;;;;;4927714;29;20237;-79
2022/06/29 14:18:18;;;;;;;4.22;1.70;;;42.20;54.60;;;;;;4907348;29;20016;-81
2022/06/29 14:20:45;;;;;;;5.75;1.90;;;41.60;54.20;;;;;;4928475;29;20258;-81
2022/06/29 14:23:12;;;;;;;5.30;1.42;;;40.50;54.90;;;;;;4911384;29;20217;-79
2022/06/29 14:25:37;;;;;;;4.20;1.65;;;41.20;54.50;;;;;;4929056;29;20036;-80
2022/06/29 14:28:04;;;;;;;3.03;1.40;;;42.70;53.40;;;;;;4911579;29;20035;-80
2022/06/29 14:30:30;;;;;;;3.72;1.65;;;44.20;51.70;;;;;;4911516;29;20032;-81
2022/06/29 14:32:56;;;;;;;3.08;1.50;;;43.80;50.40;;;;;;4908083;29;20047;-81
2022/06/29 14:35:21;;;;;;;3.33;1.60;;;44.20;50.50;;;;;;4909950;29;20028;-78
2022/06/29 14:37:47;;;;;;;2.40;1.48;;;45.30;49.40;;;;;;4912088;29;20046;-78
2022/06/29 14:40:13;;;;;;;4.22;1.63;;;45.40;48.60;;;;;;4924748;29;20286;-78
2022/06/29 14:42:39;;;;;;;2.88;1.50;;;44.80;47.90;;;;;;4939142;29;20288;-78
2022/06/29 14:45:06;;;;;;;4.30;1.67;;;43.50;49.10;;;;;;4903448;29;20036;-79
2022/06/29 14:47:32;;;;;;;3.78;1.90;;;42.80;49.70;;;;;;4911043;29;20322;-79
2022/06/29 14:49:58;;;;;;;3.90;2.15;;;41.30;51.30;;;;;;4892352;29;20044;-79
2022/06/29 14:52:25;;;;;;;7.40;2.10;;;39.40;53.10;;;;;;4910559;29;20024;-79
2022/06/29 14:54:51;;;;;;;3.40;1.42;;;39.20;53.60;;;;;;4910088;29;20036;-80
2022/06/29 14:57:18;;;;;;;3.28;1.90;;;40.50;53.00;;;;;;4912483;29;20179;-79
2022/06/29 14:59:44;;;;;;;3.58;1.52;;;40.70;52.20;;;;;;4912541;29;20029;-80
2022/06/29 15:02:11;;;;;;;3.03;1.55;;;40.80;51.80;;;;;;4886910;29;20227;-79
2022/06/29 15:04:38;;;;;;;3.10;1.53;;;40.50;53.80;;;;;;4885590;29;20028;-80
2022/06/29 15:07:04;;;;;;;2.78;1.60;;;39.60;54.50;;;;;;4900264;29;20465;-78
2022/06/29 15:09:32;;;;;;;4.90;1.70;;;38.30;54.50;;;;;;4911221;29;20048;-79
2022/06/29 15:11:58;;;;;;;4.70;2.00;;;36.90;56.00;;;;;;4927497;29;20048;-80
2022/06/29 15:14:24;;;;;;;3.50;1.50;;;36.30;58.20;;;;;;4928023;29;20050;-79
2022/06/29 15:16:51;;;;;;;4.47;2.13;;;37.90;56.70;;;;;;4910459;29;20044;-79
2022/06/29 15:19:18;;;;;;;3.67;1.80;;;40.70;54.30;;;;;;4927237;29;20230;-79
2022/06/29 15:21:45;;;;;;;2.88;1.52;;;43.20;52.30;;;;;;4927919;29;20788;-78
2022/06/29 15:24:24;;;;;;;3.15;1.50;;;44.90;50.50;;;;;;4927452;29;20080;-77
2022/06/29 15:26:51;;;;;;;2.72;1.48;;;46.60;48.50;;;;;;4911317;29;20036;-80
2022/06/29 15:29:17;;;;;;;2.15;1.40;;;47.30;47.60;;;;;;4910677;29;20028;-80
2022/06/29 15:31:43;;;;;;;3.63;1.50;;;47.10;47.40;;;;;;4927377;29;20084;-80
2022/06/29 15:39:38;;;;;;;3.03;1.35;;;46.80;47.20;;;;;;4927520;29;20168;-80
2022/06/29 15:42:05;;;;;;;2.42;1.50;;;46.20;47.50;;;;;;4927256;29;20024;-81
2022/06/29 15:44:31;;;;;;;4.15;1.45;;;46.50;47.10;;;;;;4928367;29;20059;-79
2022/06/29 15:46:58;;;;;;;3.63;1.47;;;46.50;47.60;;;;;;4911739;29;20043;-82
2022/06/29 15:49:24;;;;;;;2.85;1.50;;;46.90;46.80;;;;;;4891942;29;20056;-79
2022/06/29 15:51:51;;;;;;;3.63;1.52;;;47.10;46.50;;;;;;4892654;29;20032;-81
2022/06/29 15:57:02;;;;;;;3.95;1.58;;;45.40;47.50;;;;;;4891329;29;20033;-80
2022/06/29 15:59:28;;;;;;;3.88;1.58;;;45.30;47.30;;;;;;4908580;29;20020;-79
2022/06/29 16:01:54;;;;;;;4.90;1.73;;;44.90;47.50;;;;;;4895694;29;20072;-80
2022/06/29 16:04:20;;;;;;;3.92;1.65;;;44.80;47.70;;;;;;4910206;29;20084;-79
2022/06/29 16:06:47;;;;;;;;;;;44.20;48.20;;;;;;4907772;29;20326;-80
2022/06/29 16:09:13;;;;;;;3.80;1.70;;;43.80;48.10;;;;;;4906313;29;19914;-79
2022/06/29 16:12:21;;;;;;;2.70;1.70;;;44.20;48.40;;;;;;4890728;29;20021;-80
2022/06/29 16:14:28;;;;;;;4.82;1.73;;;43.60;47.80;;;;;;4904190;29;20091;-80
2022/06/29 16:16:54;;;;;;;2.53;1.55;;;44.00;48.00;;;;;;4925779;29;20337;-81
2022/06/29 16:19:19;;;;;;;3.50;1.60;;;43.70;47.90;;;;;;4911524;29;20344;-81
2022/06/29 16:21:45;;;;;;;3.88;1.55;;;45.20;47.50;;;;;;4927970;29;20034;-79
2022/06/29 16:24:11;;;;;;;3.83;1.50;;;45.40;46.90;;;;;;4944757;29;20019;-80
2022/06/29 16:26:38;;;;;;;5.47;1.48;;;44.60;47.00;;;;;;4943828;29;20055;-80
2022/06/29 16:29:04;;;;;;;3.80;1.45;;;44.10;47.70;;;;;;4927578;29;20309;-82
2022/06/29 16:31:31;;;;;;;3.95;1.50;;;44.90;48.00;;;;;;4944422;29;20050;-80
2022/06/29 16:33:56;;;;;;;4.07;2.03;;;45.60;46.50;;;;;;4945117;29;20481;-80
2022/06/29 16:36:22;;;;;;;3.65;1.40;;;44.70;46.70;;;;;;4927441;29;20035;-79
2022/06/29 16:38:48;;;;;;;3.45;1.50;;;44.00;47.60;;;;;;4927859;29;20036;-79
2022/06/29 16:41:14;;;;;;;2.38;1.48;;;44.00;48.00;;;;;;4919847;29;20028;-79
2022/06/29 16:43:40;;;;;;;4.38;1.70;;;43.20;48.90;;;;;;4889787;29;20036;-80
2022/06/29 16:46:06;;;;;;;3.97;1.70;;;42.60;49.10;;;;;;4909404;29;20044;-79
2022/06/29 16:48:31;;;;;;;6.72;1.88;;;43.20;49.50;;;;;;4925459;29;20203;-80
2022/06/29 16:50:57;;;;;;;2.60;1.73;;;43.00;48.40;;;;;;4925362;29;20059;-80
2022/06/29 17:40:23;;;;;;;3.10;1.75;;;43.00;48.70;;;;;;4870450;29;20101;-74
2022/06/29 17:42:49;;;;;;;3.40;1.77;;;43.20;48.30;;;;;;4888872;29;20381;-74
2022/06/29 17:45:15;;;;;;;5.05;1.90;;;42.10;49.40;;;;;;4889111;29;20040;-71
2022/06/29 17:47:40;;;;;;;5.85;1.80;;;41.30;49.70;;;;;;4890853;29;20123;-71
2022/06/29 17:50:06;;;;;;;5.07;2.17;;;40.60;50.50;;;;;;4890264;29;20041;-68
2022/06/29 17:52:32;;;;;;;4.93;1.88;;;39.30;51.60;;;;;;4890504;29;20029;-71
2022/06/29 17:54:58;;;;;;;2.38;1.83;;;37.80;53.20;;;;;;4890570;29;20033;-72
2022/06/29 17:57:24;;;;;;;4.50;2.28;;;36.80;54.90;;;;;;4889900;29;20097;-72
2022/06/29 17:59:50;;;;;;;4.90;2.22;;;35.90;55.80;;;;;;4890731;29;20389;-74
2022/06/29 18:02:18;;;;;;;3.80;1.80;;;35.70;56.60;;;;;;4889409;29;20045;-74
2022/06/29 18:04:45;;;;;;;3.65;2.05;;;35.20;57.60;;;;;;4884498;29;20108;-70
2022/06/29 18:07:21;;;;;;;3.47;2.07;;;34.70;57.60;;;;;;4889657;29;20033;-72
2022/06/29 18:09:49;;;;;;;3.33;1.92;;;34.30;59.20;;;;;;4890185;29;20040;-80
2022/06/29 18:12:16;;;;;;;6.00;3.28;;;34.10;59.20;;;;;;4869747;29;20258;-68
2022/06/29 18:14:43;;;;;;;4.47;3.00;;;33.70;59.70;;;;;;4881236;29;20163;-69
2022/06/29 18:17:09;;;;;;;6.07;2.83;;;33.20;61.10;;;;;;4888965;29;20315;-67
2022/06/29 18:19:35;;;;;;;4.40;2.60;;;33.00;61.50;;;;;;4889950;29;20106;-68
2022/06/29 18:22:01;;;;;;;5.28;3.17;;;32.60;62.30;;;;;;4881769;29;20049;-67
2022/06/29 18:24:27;;;;;;;4.97;2.63;;;32.70;62.40;;;;;;4886489;29;20284;-69
2022/06/29 18:26:52;;;;;;;4.78;2.40;;;32.70;61.70;;;;;;4889582;29;20108;-68
2022/06/29 18:29:18;;;;;;;3.72;2.20;;;32.50;62.10;;;;;;4889595;29;20036;-70
2022/06/29 18:31:44;;;;;;;3.95;2.33;;;32.00;63.00;;;;;;4902054;29;20373;-68
2022/06/29 18:34:09;;;;;;;4.03;2.17;;;31.80;64.00;;;;;;4907515;29;20234;-70
2022/06/29 18:36:35;;;;;;;5.25;2.40;;;31.70;64.30;;;;;;4909418;29;20032;-69
2022/06/29 18:39:05;;;;;;;6.40;2.58;;;31.60;64.30;;;;;;4909539;29;20033;-69
2022/06/29 18:41:31;;;;;;;4.20;2.30;;;31.40;65.00;;;;;;4907894;29;20235;-69
2022/06/29 18:43:59;;;;;;;4.20;2.45;;;31.10;65.50;;;;;;4908075;29;20099;-69
2022/06/29 18:46:26;;;;;;;6.97;2.42;;;30.70;66.00;;;;;;4906908;29;20361;-68
2022/06/29 18:48:52;;;;;;;3.58;2.20;;;30.40;66.80;;;;;;4891043;29;20341;-68
2022/06/29 18:51:18;;;;;;;6.15;2.35;;;30.10;67.40;;;;;;4907698;29;20219;-68
2022/06/29 18:53:44;;;;;;;4.47;2.70;;;29.90;67.90;;;;;;4908121;29;20064;-69
2022/06/29 18:56:10;;;;;;;4.07;2.33;;;29.60;68.60;;;;;;4907961;29;20043;-69
2022/06/29 18:58:39;;;;;;;4.97;2.50;;;29.40;69.10;;;;;;4908429;29;20311;-69
2022/06/29 19:01:05;;;;;;;3.70;2.28;;;29.20;69.60;;;;;;4890409;29;20322;-67